Time;durP1;ratioP1;P1;durP2;ratioP2;P2;SDS_P1;SDS_P2;PMS_P1;PMS_P2;Temp;Humidity;BMP_temperature;BMP_pressure;BME280_temperature;BME280_humidity;BME280_pressure;Samples;Min_cycle;Max_cycle;Signal;HPM_P1;HPM_P2
2021/07/21 00:00:20;;;;;;;17.42;10.95;;;;;;;;;;5037968;28;20056;-65
2021/07/21 00:03:05;;;;;;;16.48;9.90;;;;;;;;;;5038535;28;20049;-64
2021/07/21 00:05:51;;;;;;;12.85;9.50;;;;;;;;;;5038251;28;20064;-63
2021/07/21 00:08:36;;;;;;;13.50;9.93;;;;;;;;;;5038151;28;20045;-63
2021/07/21 00:14:26;;;;;;;14.73;10.07;;;;;;;;;;5038208;28;20056;-64
2021/07/21 00:17:19;;;;;;;16.17;12.00;;;;;;;;;;5038040;28;20053;-64
2021/07/21 00:20:09;;;;;;;18.30;12.00;;;;;;;;;;5017941;28;20559;-63
2021/07/21 00:22:54;;;;;;;17.77;11.07;;;;;;;;;;5017395;28;20053;-63
2021/07/21 00:25:40;;;;;;;12.13;8.98;;;;;;;;;;5018088;28;20541;-63
2021/07/21 00:28:25;;;;;;;15.10;8.90;;;;;;;;;;5017767;28;20072;-63
2021/07/21 00:31:11;;;;;;;14.43;9.07;;;;;;;;;;5018022;28;20200;-63
2021/07/21 00:33:56;;;;;;;13.23;8.50;;;;;;;;;;5018792;28;20053;-63
2021/07/21 00:36:41;;;;;;;18.75;9.10;;;;;;;;;;5018344;28;20058;-63
2021/07/21 00:39:27;;;;;;;14.25;9.88;;;;;;;;;;5017856;28;20507;-62
2021/07/21 00:42:12;;;;;;;18.63;10.90;;;;;;;;;;5018885;28;20081;-63
2021/07/21 00:44:58;;;;;;;16.13;10.30;;;;;;;;;;5018619;28;20050;-63
2021/07/21 01:00:27;;;;;;;16.38;11.93;;;;;;;;;;5014573;28;20506;-63
2021/07/21 01:03:13;;;;;;;26.83;17.50;;;;;;;;;;5015077;28;20061;-63
2021/07/21 01:06:02;;;;;;;25.42;14.98;;;;;;;;;;5014773;28;20092;-63
2021/07/21 01:08:48;;;;;;;25.17;14.07;;;;;;;;;;5014703;28;20042;-63
2021/07/21 01:11:50;;;;;;;19.15;11.82;;;;;;;;;;5014735;28;20046;-63
2021/07/21 01:14:53;;;;;;;22.58;12.82;;;;;;;;;;5002669;28;20611;-64
2021/07/21 01:17:54;;;;;;;17.08;9.95;;;;;;;;;;4988984;28;20132;-63
2021/07/21 01:20:48;;;;;;;16.63;10.57;;;;;;;;;;4999446;28;20057;-63
2021/07/21 01:24:14;;;;;;;14.05;8.27;;;;;;;;;;4985827;28;20049;-63
2021/07/21 01:27:19;;;;;;;11.23;7.38;;;;;;;;;;4995540;28;20500;-63
2021/07/21 01:30:28;;;;;;;12.88;8.88;;;;;;;;;;5002673;28;20133;-63
2021/07/21 01:33:17;;;;;;;13.30;8.30;;;;;;;;;;5001616;28;20046;-63
2021/07/21 01:36:04;;;;;;;16.70;9.63;;;;;;;;;;5001010;28;20046;-63
2021/07/21 01:38:57;;;;;;;16.77;10.15;;;;;;;;;;5001632;28;20050;-63
2021/07/21 01:41:46;;;;;;;22.58;13.10;;;;;;;;;;4999329;28;20050;-63
2021/07/21 01:44:32;;;;;;;21.65;13.13;;;;;;;;;;4999264;28;20045;-63
2021/07/21 01:47:23;;;;;;;24.40;14.10;;;;;;;;;;4999196;28;20049;-64
2021/07/21 01:50:08;;;;;;;16.63;10.88;;;;;;;;;;4999374;28;20045;-63
2021/07/21 01:52:54;;;;;;;21.65;13.63;;;;;;;;;;4999538;28;20049;-63
2021/07/21 01:55:41;;;;;;;22.50;13.50;;;;;;;;;;4986751;28;20042;-63
2021/07/21 01:58:28;;;;;;;26.70;16.08;;;;;;;;;;5000267;28;20050;-64
2021/07/21 02:01:30;;;;;;;25.02;15.93;;;;;;;;;;4999958;28;20588;-63
2021/07/21 02:04:17;;;;;;;19.50;13.43;;;;;;;;;;4997546;28;20046;-63
2021/07/21 02:07:02;;;;;;;17.45;12.05;;;;;;;;;;4997655;28;20053;-63
2021/07/21 02:09:48;;;;;;;18.30;12.68;;;;;;;;;;4999243;28;20052;-64
2021/07/21 02:12:46;;;;;;;14.63;10.90;;;;;;;;;;4999130;28;20038;-64
2021/07/21 02:15:32;;;;;;;15.27;10.48;;;;;;;;;;4998934;28;20056;-64
2021/07/21 02:18:21;;;;;;;20.52;13.32;;;;;;;;;;5006364;28;20068;-64
2021/07/21 02:21:08;;;;;;;16.52;10.60;;;;;;;;;;4998406;28;20045;-64
2021/07/21 02:23:54;;;;;;;16.92;11.52;;;;;;;;;;5004050;28;20057;-63
2021/07/21 02:26:59;;;;;;;17.63;11.48;;;;;;;;;;5040763;28;20178;-64
2021/07/21 02:29:46;;;;;;;15.95;10.30;;;;;;;;;;5037529;28;20144;-64
2021/07/21 02:32:34;;;;;;;16.30;10.68;;;;;;;;;;5028725;28;20065;-63
2021/07/21 02:35:21;;;;;;;17.00;11.23;;;;;;;;;;5018929;28;20563;-64
2021/07/21 02:38:07;;;;;;;17.67;11.43;;;;;;;;;;5033575;28;20056;-64
2021/07/21 02:41:00;;;;;;;17.88;11.02;;;;;;;;;;5026297;28;20648;-63
2021/07/21 02:43:50;;;;;;;17.88;11.63;;;;;;;;;;5033003;28;20049;-64
2021/07/21 02:46:36;;;;;;;19.33;11.57;;;;;;;;;;5033770;28;20069;-63
2021/07/21 02:49:21;;;;;;;19.25;11.77;;;;;;;;;;5037129;28;20128;-63
2021/07/21 02:52:12;;;;;;;16.52;12.18;;;;;;;;;;5035712;28;20427;-63
2021/07/21 02:55:14;;;;;;;19.35;13.70;;;;;;;;;;5017610;28;20051;-64
2021/07/21 02:58:05;;;;;;;21.98;13.93;;;;;;;;;;5035725;28;20055;-64
2021/07/21 03:00:53;;;;;;;24.92;15.07;;;;;;;;;;5018232;28;20087;-64
2021/07/21 03:03:42;;;;;;;23.80;15.88;;;;;;;;;;5023041;28;20047;-63
2021/07/21 03:06:28;;;;;;;22.83;15.25;;;;;;;;;;5050716;28;20095;-63
2021/07/21 03:09:18;;;;;;;26.27;16.50;;;;;;;;;;5034849;28;20187;-64
2021/07/21 03:12:13;;;;;;;24.08;15.43;;;;;;;;;;5012530;28;20061;-64
2021/07/21 03:15:24;;;;;;;23.52;14.88;;;;;;;;;;5014271;28;20052;-64
2021/07/21 03:18:13;;;;;;;24.55;14.07;;;;;;;;;;5018234;28;20053;-63
2021/07/21 03:21:03;;;;;;;18.05;12.98;;;;;;;;;;5004173;28;20064;-63
2021/07/21 03:23:53;;;;;;;17.67;12.63;;;;;;;;;;5033237;28;20408;-63
2021/07/21 03:26:57;;;;;;;24.10;14.15;;;;;;;;;;5020935;28;20522;-63
2021/07/21 03:29:57;;;;;;;22.58;15.23;;;;;;;;;;5017981;28;20046;-63
2021/07/21 03:32:56;;;;;;;21.33;13.98;;;;;;;;;;5017830;28;20172;-63
2021/07/21 03:35:42;;;;;;;21.20;14.13;;;;;;;;;;4997833;28;20455;-64
2021/07/21 03:38:30;;;;;;;22.40;14.43;;;;;;;;;;5009441;28;20048;-64
2021/07/21 03:41:28;;;;;;;20.63;14.48;;;;;;;;;;5036309;28;20052;-64
2021/07/21 03:44:14;;;;;;;22.08;14.40;;;;;;;;;;5017245;28;20053;-63
2021/07/21 03:47:02;;;;;;;20.67;14.18;;;;;;;;;;5014502;28;20596;-63
2021/07/21 03:49:47;;;;;;;23.05;15.95;;;;;;;;;;5018778;28;20065;-63
2021/07/21 03:52:39;;;;;;;26.42;16.52;;;;;;;;;;5031746;28;20495;-63
2021/07/21 03:55:28;;;;;;;25.08;17.38;;;;;;;;;;5027614;28;20041;-64
2021/07/21 03:58:24;;;;;;;21.08;15.73;;;;;;;;;;5026288;28;20060;-63
2021/07/21 04:01:21;;;;;;;22.15;14.43;;;;;;;;;;5032759;28;20049;-63
2021/07/21 04:04:16;;;;;;;29.15;16.92;;;;;;;;;;5017925;28;20072;-63
2021/07/21 04:07:03;;;;;;;23.45;15.70;;;;;;;;;;5047096;28;20053;-63
2021/07/21 04:09:57;;;;;;;21.52;15.70;;;;;;;;;;5050016;28;20048;-64
2021/07/21 04:12:47;;;;;;;23.20;15.27;;;;;;;;;;5022564;28;20127;-64
2021/07/21 04:15:37;;;;;;;23.83;15.02;;;;;;;;;;5036611;28;20060;-64
2021/07/21 04:18:31;;;;;;;26.00;17.17;;;;;;;;;;5021126;28;20053;-63
2021/07/21 04:21:16;;;;;;;24.67;16.75;;;;;;;;;;5016715;28;20053;-64
2021/07/21 04:24:05;;;;;;;25.58;16.35;;;;;;;;;;4999863;28;20061;-64
2021/07/21 04:26:51;;;;;;;22.48;14.55;;;;;;;;;;5002834;28;20172;-63
2021/07/21 04:29:37;;;;;;;20.52;14.27;;;;;;;;;;5035761;28;20044;-63
2021/07/21 04:32:24;;;;;;;21.25;13.73;;;;;;;;;;5039148;28;20065;-63
2021/07/21 04:35:11;;;;;;;27.63;15.77;;;;;;;;;;5040175;28;20503;-64
2021/07/21 04:38:00;;;;;;;19.20;14.35;;;;;;;;;;5018588;28;20048;-63
2021/07/21 04:40:59;;;;;;;26.00;14.63;;;;;;;;;;5020460;28;20049;-64
2021/07/21 04:44:11;;;;;;;21.45;14.73;;;;;;;;;;5025427;28;20434;-63
2021/07/21 04:47:09;;;;;;;24.98;17.30;;;;;;;;;;5025983;28;20049;-63
2021/07/21 04:49:58;;;;;;;21.25;16.02;;;;;;;;;;5026499;28;20045;-65
2021/07/21 04:52:44;;;;;;;21.33;15.25;;;;;;;;;;4990513;28;20050;-64
2021/07/21 04:55:30;;;;;;;20.65;14.27;;;;;;;;;;5054885;28;20513;-65
2021/07/21 04:58:17;;;;;;;42.13;16.92;;;;;;;;;;5038253;28;20045;-64
2021/07/21 05:01:05;;;;;;;24.33;15.32;;;;;;;;;;5037647;28;20446;-64
2021/07/21 05:03:54;;;;;;;24.08;16.30;;;;;;;;;;5054584;28;20049;-65
2021/07/21 05:06:59;;;;;;;21.85;14.68;;;;;;;;;;5049887;28;20052;-62
2021/07/21 05:09:45;;;;;;;28.65;16.58;;;;;;;;;;5033700;28;20038;-62
2021/07/21 05:12:31;;;;;;;19.90;15.38;;;;;;;;;;5019581;28;20068;-63
2021/07/21 05:15:17;;;;;;;21.92;15.23;;;;;;;;;;5044732;28;20045;-62
2021/07/21 05:18:06;;;;;;;27.05;15.88;;;;;;;;;;5038604;28;20057;-63
2021/07/21 05:21:00;;;;;;;23.23;16.08;;;;;;;;;;5038769;28;20122;-62
2021/07/21 05:23:46;;;;;;;20.08;15.02;;;;;;;;;;5054723;28;20175;-62
2021/07/21 05:26:32;;;;;;;23.52;15.82;;;;;;;;;;5037297;28;20045;-62
2021/07/21 05:29:28;;;;;;;31.65;15.65;;;;;;;;;;5048328;28;20045;-65
2021/07/21 05:32:20;;;;;;;21.05;15.27;;;;;;;;;;5036228;28;20532;-62
2021/07/21 05:35:25;;;;;;;21.13;14.10;;;;;;;;;;5013900;28;20077;-62
2021/07/21 05:38:13;;;;;;;26.15;16.08;;;;;;;;;;5023468;28;20037;-63
2021/07/21 05:41:01;;;;;;;22.92;15.75;;;;;;;;;;5036701;28;20052;-63
2021/07/21 05:43:57;;;;;;;27.30;15.50;;;;;;;;;;5036778;28;20095;-62
2021/07/21 05:46:44;;;;;;;24.40;16.17;;;;;;;;;;5036089;28;20483;-63
2021/07/21 05:49:31;;;;;;;21.40;16.17;;;;;;;;;;5027280;28;20539;-62
2021/07/21 05:52:28;;;;;;;20.92;15.40;;;;;;;;;;5019116;28;20072;-62
2021/07/21 05:55:14;;;;;;;21.08;15.95;;;;;;;;;;5045893;28;20056;-63
2021/07/21 05:58:00;;;;;;;24.80;17.83;;;;;;;;;;5028104;28;20045;-62
2021/07/21 06:00:46;;;;;;;28.98;16.58;;;;;;;;;;5036646;28;20056;-62
2021/07/21 06:03:37;;;;;;;21.03;16.47;;;;;;;;;;5026817;28;20041;-62
2021/07/21 06:06:41;;;;;;;20.52;16.10;;;;;;;;;;5036517;28;20053;-62
2021/07/21 06:09:57;;;;;;;22.13;16.30;;;;;;;;;;5048302;28;20044;-63
2021/07/21 06:12:49;;;;;;;19.30;15.70;;;;;;;;;;5019553;28;20046;-63
2021/07/21 06:15:35;;;;;;;16.75;14.73;;;;;;;;;;5018551;28;20071;-62
2021/07/21 06:18:23;;;;;;;22.13;15.15;;;;;;;;;;5034674;28;20523;-62
2021/07/21 06:21:10;;;;;;;19.70;14.27;;;;;;;;;;5026215;28;20048;-63
2021/07/21 06:24:10;;;;;;;19.45;15.07;;;;;;;;;;5012249;28;20042;-63
2021/07/21 06:26:59;;;;;;;21.70;15.48;;;;;;;;;;5000419;28;20444;-62
2021/07/21 06:29:53;;;;;;;21.50;14.77;;;;;;;;;;4999583;28;20092;-63
2021/07/21 06:32:39;;;;;;;18.95;15.32;;;;;;;;;;4999682;28;20050;-62
2021/07/21 06:35:25;;;;;;;23.58;15.82;;;;;;;;;;4999429;28;20042;-62
2021/07/21 06:38:10;;;;;;;18.63;13.43;;;;;;;;;;4999533;28;20057;-62
2021/07/21 06:40:58;;;;;;;18.73;14.18;;;;;;;;;;5000261;28;20053;-62
2021/07/21 06:43:44;;;;;;;16.60;13.80;;;;;;;;;;5013965;28;20506;-62
2021/07/21 06:46:37;;;;;;;17.58;13.45;;;;;;;;;;4998048;28;20045;-62
2021/07/21 06:49:41;;;;;;;18.27;13.50;;;;;;;;;;5021278;28;20045;-62
2021/07/21 06:52:26;;;;;;;14.95;12.30;;;;;;;;;;5023561;28;20046;-62
2021/07/21 06:55:12;;;;;;;16.85;13.48;;;;;;;;;;5034110;28;20120;-62
2021/07/21 06:58:03;;;;;;;14.35;12.82;;;;;;;;;;5018802;28;20140;-62
2021/07/21 07:01:06;;;;;;;13.52;11.65;;;;;;;;;;5017961;28;20403;-62
2021/07/21 07:04:10;;;;;;;13.57;11.13;;;;;;;;;;5012900;28;20069;-62
2021/07/21 07:07:22;;;;;;;13.10;11.20;;;;;;;;;;5004459;28;20053;-63
2021/07/21 07:10:26;;;;;;;13.50;10.48;;;;;;;;;;5032143;28;20132;-63
2021/07/21 07:13:11;;;;;;;14.10;10.85;;;;;;;;;;5044493;28;20106;-63
2021/07/21 07:15:57;;;;;;;10.93;9.75;;;;;;;;;;5035465;28;20046;-62
2021/07/21 07:18:42;;;;;;;13.82;9.55;;;;;;;;;;5025416;28;20168;-62
2021/07/21 07:21:29;;;;;;;10.40;9.30;;;;;;;;;;5031850;28;20518;-63
2021/07/21 07:24:14;;;;;;;11.57;9.57;;;;;;;;;;5032114;28;20500;-63
2021/07/21 07:27:00;;;;;;;11.30;8.63;;;;;;;;;;5031959;28;20046;-62
2021/07/21 07:29:46;;;;;;;11.43;7.43;;;;;;;;;;5022648;28;20052;-62
2021/07/21 07:32:31;;;;;;;10.30;7.72;;;;;;;;;;5032026;28;20046;-62
2021/07/21 07:35:16;;;;;;;7.68;6.38;;;;;;;;;;5034165;28;20102;-63
2021/07/21 07:38:03;;;;;;;7.70;6.90;;;;;;;;;;5031982;28;20045;-62
2021/07/21 07:40:48;;;;;;;7.55;6.38;;;;;;;;;;5032918;28;20050;-63
2021/07/21 07:43:37;;;;;;;16.42;7.13;;;;;;;;;;5019466;28;20041;-63
2021/07/21 07:46:25;;;;;;;7.95;7.15;;;;;;;;;;5044181;28;20051;-63
2021/07/21 07:49:10;;;;;;;7.25;5.60;;;;;;;;;;5052000;28;20094;-63
2021/07/21 07:51:56;;;;;;;8.98;6.25;;;;;;;;;;5050717;28;20040;-63
2021/07/21 07:54:41;;;;;;;7.60;6.45;;;;;;;;;;5039521;28;20049;-63
2021/07/21 07:57:26;;;;;;;8.23;7.32;;;;;;;;;;5012038;28;20060;-63
2021/07/21 08:00:12;;;;;;;8.85;7.13;;;;;;;;;;5041331;28;20049;-64
2021/07/21 08:03:01;;;;;;;11.77;8.88;;;;;;;;;;5045666;28;20160;-64
2021/07/21 08:05:49;;;;;;;15.70;7.80;;;;;;;;;;5038660;28;20496;-63
2021/07/21 08:08:34;;;;;;;8.35;7.18;;;;;;;;;;5035547;28;20056;-63
2021/07/21 08:11:20;;;;;;;7.13;6.43;;;;;;;;;;5035635;28;20163;-63
2021/07/21 08:14:05;;;;;;;10.20;7.93;;;;;;;;;;5035494;28;20424;-63
2021/07/21 08:16:51;;;;;;;7.80;7.00;;;;;;;;;;5044974;28;20486;-63
2021/07/21 08:19:39;;;;;;;14.90;8.25;;;;;;;;;;5036191;28;20052;-63
2021/07/21 08:22:25;;;;;;;9.45;7.65;;;;;;;;;;5037056;28;20042;-64
2021/07/21 08:25:11;;;;;;;8.82;6.47;;;;;;;;;;5043552;28;20041;-63
2021/07/21 08:28:00;;;;;;;9.55;7.88;;;;;;;;;;5039546;28;20423;-63
2021/07/21 08:30:46;;;;;;;7.72;6.70;;;;;;;;;;5055783;28;20047;-64
2021/07/21 08:33:31;;;;;;;8.13;5.95;;;;;;;;;;5037179;28;20049;-64
2021/07/21 08:36:16;;;;;;;7.20;6.05;;;;;;;;;;5035228;28;20097;-64
2021/07/21 08:39:02;;;;;;;7.97;6.20;;;;;;;;;;5036187;28;20049;-63
2021/07/21 08:41:47;;;;;;;12.45;7.15;;;;;;;;;;5035651;28;20049;-63
2021/07/21 08:44:32;;;;;;;9.85;7.43;;;;;;;;;;5026844;28;20583;-64
2021/07/21 08:47:18;;;;;;;9.35;7.72;;;;;;;;;;5037289;28;20491;-63
2021/07/21 08:50:04;;;;;;;57.53;52.45;;;;;;;;;;5040356;28;20056;-64
2021/07/21 08:52:53;;;;;;;9.90;8.90;;;;;;;;;;5035050;28;20053;-64
2021/07/21 08:55:38;;;;;;;7.97;6.40;;;;;;;;;;5035891;28;20045;-64
2021/07/21 08:58:24;;;;;;;10.07;6.72;;;;;;;;;;5034707;28;20200;-64
2021/07/21 09:01:09;;;;;;;8.90;7.55;;;;;;;;;;5021075;28;20060;-64
2021/07/21 09:03:54;;;;;;;9.07;8.18;;;;;;;;;;5027550;28;20523;-74
2021/07/21 09:06:41;;;;;;;15.40;13.85;;;;;;;;;;5000227;28;20496;-73
2021/07/21 09:09:27;;;;;;;16.90;11.02;;;;;;;;;;5020379;28;20045;-73
2021/07/21 09:12:12;;;;;;;13.68;8.18;;;;;;;;;;5041623;28;20037;-73
2021/07/21 09:14:57;;;;;;;13.15;6.50;;;;;;;;;;5024374;28;20042;-73
2021/07/21 09:17:58;;;;;;;9.85;7.70;;;;;;;;;;5020627;28;20045;-73
2021/07/21 09:20:46;;;;;;;13.95;9.02;;;;;;;;;;5019263;28;20045;-73
2021/07/21 09:23:48;;;;;;;9.30;7.95;;;;;;;;;;5034302;28;20392;-72
2021/07/21 09:26:39;;;;;;;17.50;11.52;;;;;;;;;;5034136;28;20484;-73
2021/07/21 09:29:26;;;;;;;9.17;7.63;;;;;;;;;;5033713;28;20045;-73
2021/07/21 09:32:11;;;;;;;11.13;7.43;;;;;;;;;;5019235;28;20052;-73
2021/07/21 09:34:57;;;;;;;7.47;6.55;;;;;;;;;;5034028;28;20038;-73
2021/07/21 09:37:42;;;;;;;9.40;7.40;;;;;;;;;;5033803;28;20499;-72
2021/07/21 09:40:28;;;;;;;9.13;8.05;;;;;;;;;;5018634;28;20044;-72
2021/07/21 09:43:20;;;;;;;9.98;8.32;;;;;;;;;;5033660;28;20403;-72
2021/07/21 09:46:05;;;;;;;;;;;;;;;;;;5034359;28;20048;-72
2021/07/21 09:48:51;;;;;;;10.70;7.68;;;;;;;;;;5033654;28;19921;-72
2021/07/21 09:51:38;;;;;;;7.63;6.82;;;;;;;;;;5037163;28;20108;-73
2021/07/21 09:54:23;;;;;;;7.78;6.97;;;;;;;;;;5025047;28;20049;-73
2021/07/21 09:57:12;;;;;;;8.20;7.30;;;;;;;;;;5045469;28;20060;-73
2021/07/21 09:59:58;;;;;;;8.15;7.35;;;;;;;;;;5018417;28;20044;-73
2021/07/21 10:02:43;;;;;;;9.45;6.68;;;;;;;;;;5018506;28;20041;-72
2021/07/21 10:05:28;;;;;;;8.85;7.95;;;;;;;;;;5016112;28;20057;-74
2021/07/21 10:08:25;;;;;;;9.70;7.10;;;;;;;;;;5032726;28;20089;-74
2021/07/21 10:11:20;;;;;;;7.85;6.78;;;;;;;;;;5011727;28;20048;-73
2021/07/21 10:14:05;;;;;;;16.85;8.27;;;;;;;;;;5020315;28;20514;-72
2021/07/21 10:16:52;;;;;;;7.90;7.10;;;;;;;;;;5033208;28;20407;-72
2021/07/21 10:19:37;;;;;;;8.05;6.80;;;;;;;;;;5017679;28;20056;-72
2021/07/21 10:22:22;;;;;;;10.05;6.38;;;;;;;;;;5033161;28;20048;-72
2021/07/21 10:25:07;;;;;;;9.15;7.40;;;;;;;;;;5017001;28;20049;-71
2021/07/21 10:27:52;;;;;;;7.45;6.70;;;;;;;;;;5017797;28;20646;-71
2021/07/21 10:30:39;;;;;;;8.15;7.25;;;;;;;;;;5017902;28;20037;-71
2021/07/21 10:33:24;;;;;;;8.25;7.15;;;;;;;;;;5017651;28;20116;-71
2021/07/21 10:36:10;;;;;;;20.20;10.13;;;;;;;;;;5019054;28;20041;-71
2021/07/21 10:38:55;;;;;;;9.32;7.00;;;;;;;;;;5037478;28;20052;-71
2021/07/21 10:41:41;;;;;;;12.63;7.25;;;;;;;;;;5045712;28;20049;-72
2021/07/21 10:44:26;;;;;;;8.43;6.53;;;;;;;;;;5017696;28;20515;-72
2021/07/21 10:47:20;;;;;;;8.65;6.50;;;;;;;;;;5032183;28;20052;-71
2021/07/21 10:50:10;;;;;;;6.65;5.95;;;;;;;;;;5031933;28;20123;-63
2021/07/21 10:53:15;;;;;;;7.07;6.38;;;;;;;;;;5018596;28;20049;-64
2021/07/21 10:59:23;;;;;;;8.13;6.40;;;;;;;;;;5032183;28;20060;-63
2021/07/21 11:02:09;;;;;;;9.73;6.35;;;;;;;;;;5033582;28;20060;-63
2021/07/21 11:04:54;;;;;;;8.85;6.82;;;;;;;;;;5017595;28;20076;-63
2021/07/21 11:07:49;;;;;;;7.43;6.65;;;;;;;;;;5032885;28;20049;-63
2021/07/21 11:10:36;;;;;;;12.18;6.78;;;;;;;;;;5032557;28;20060;-65
2021/07/21 11:13:24;;;;;;;16.08;6.53;;;;;;;;;;5032502;28;20052;-65
2021/07/21 11:16:29;;;;;;;14.18;6.53;;;;;;;;;;5032458;28;20411;-65
2021/07/21 11:19:29;;;;;;;8.05;6.80;;;;;;;;;;5034532;28;20060;-65
2021/07/21 11:22:20;;;;;;;7.53;6.43;;;;;;;;;;5026305;28;20053;-66
2021/07/21 11:25:07;;;;;;;8.68;7.15;;;;;;;;;;5044678;28;20132;-66
2021/07/21 11:28:01;;;;;;;9.15;7.07;;;;;;;;;;5036767;28;20048;-65
2021/07/21 11:30:49;;;;;;;8.88;7.70;;;;;;;;;;5033661;28;20053;-65
2021/07/21 11:34:01;;;;;;;9.07;6.95;;;;;;;;;;5034861;28;20050;-65
2021/07/21 11:36:49;;;;;;;7.97;6.43;;;;;;;;;;5036834;28;20682;-65
2021/07/21 11:39:41;;;;;;;10.00;6.28;;;;;;;;;;5048538;28;20178;-65
2021/07/21 11:42:26;;;;;;;15.80;6.63;;;;;;;;;;5031198;28;20164;-65
2021/07/21 11:45:18;;;;;;;7.80;6.28;;;;;;;;;;5031667;28;20049;-65
2021/07/21 11:48:06;;;;;;;8.32;6.47;;;;;;;;;;5048634;28;20052;-65
2021/07/21 11:50:52;;;;;;;18.25;6.45;;;;;;;;;;5037045;28;20044;-65
2021/07/21 11:53:37;;;;;;;9.38;6.40;;;;;;;;;;5026751;28;20510;-65
2021/07/21 11:56:23;;;;;;;6.43;5.75;;;;;;;;;;5035094;28;20119;-65
2021/07/21 11:59:08;;;;;;;8.20;5.80;;;;;;;;;;5029469;28;20056;-65
2021/07/21 12:02:07;;;;;;;7.72;6.20;;;;;;;;;;5031582;28;20546;-65
2021/07/21 12:04:53;;;;;;;7.72;6.22;;;;;;;;;;5026066;28;20156;-65
2021/07/21 12:07:39;;;;;;;7.03;6.32;;;;;;;;;;5031976;28;20038;-65
2021/07/21 12:10:24;;;;;;;7.95;6.43;;;;;;;;;;5030411;28;20037;-65
2021/07/21 12:13:10;;;;;;;8.27;7.10;;;;;;;;;;5030056;28;20123;-65
2021/07/21 12:15:58;;;;;;;9.52;6.35;;;;;;;;;;5051522;28;20056;-65
2021/07/21 12:18:44;;;;;;;9.18;6.68;;;;;;;;;;5036916;28;20545;-65
2021/07/21 12:21:30;;;;;;;9.23;6.65;;;;;;;;;;5016520;28;20038;-65
2021/07/21 12:24:18;;;;;;;9.35;6.22;;;;;;;;;;5032561;28;20046;-65
2021/07/21 12:27:03;;;;;;;7.70;6.97;;;;;;;;;;5032855;28;20079;-65
2021/07/21 12:29:49;;;;;;;6.65;5.95;;;;;;;;;;5030392;28;20048;-65
2021/07/21 12:32:35;;;;;;;8.02;6.88;;;;;;;;;;5025781;28;20050;-65
2021/07/21 12:35:20;;;;;;;8.00;6.40;;;;;;;;;;5030896;28;20037;-65
2021/07/21 12:38:06;;;;;;;8.25;6.30;;;;;;;;;;5034827;28;20061;-65
2021/07/21 12:40:51;;;;;;;8.65;7.78;;;;;;;;;;5025903;28;20100;-64
2021/07/21 12:43:36;;;;;;;8.02;6.47;;;;;;;;;;5031172;28;20423;-65
2021/07/21 12:46:21;;;;;;;7.65;6.38;;;;;;;;;;5035102;28;20049;-66
2021/07/21 12:49:07;;;;;;;7.65;6.88;;;;;;;;;;5034479;28;20045;-65
2021/07/21 12:51:52;;;;;;;7.68;6.95;;;;;;;;;;5034499;28;20048;-65
2021/07/21 12:54:37;;;;;;;15.55;6.60;;;;;;;;;;5035004;28;20053;-65
2021/07/21 12:57:32;;;;;;;12.73;6.78;;;;;;;;;;5034788;28;20046;-66
2021/07/21 13:00:24;;;;;;;7.53;6.72;;;;;;;;;;5019642;28;20100;-64
2021/07/21 13:03:10;;;;;;;8.25;6.70;;;;;;;;;;5034720;28;20044;-65
2021/07/21 13:05:58;;;;;;;10.35;6.80;;;;;;;;;;5034703;28;20053;-65
2021/07/21 13:08:49;;;;;;;7.18;6.38;;;;;;;;;;5019466;28;20048;-65
2021/07/21 13:11:34;;;;;;;7.82;6.30;;;;;;;;;;5034286;28;20462;-64
2021/07/21 13:14:19;;;;;;;7.55;6.75;;;;;;;;;;5019649;28;20056;-63
2021/07/21 13:17:11;;;;;;;8.65;6.50;;;;;;;;;;5034466;28;20116;-64
2021/07/21 13:20:03;;;;;;;7.70;6.53;;;;;;;;;;5034241;28;20523;-64
2021/07/21 13:22:48;;;;;;;6.90;6.20;;;;;;;;;;5034543;28;20135;-64
2021/07/21 13:25:33;;;;;;;8.35;6.65;;;;;;;;;;5034513;28;20054;-64
2021/07/21 13:28:20;;;;;;;10.88;6.43;;;;;;;;;;5034062;28;20610;-63
2021/07/21 13:31:13;;;;;;;7.30;6.30;;;;;;;;;;5032448;28;20057;-63
2021/07/21 13:33:59;;;;;;;6.85;6.13;;;;;;;;;;5033406;28;20049;-64
2021/07/21 13:36:44;;;;;;;8.07;6.38;;;;;;;;;;5033568;28;20065;-63
2021/07/21 13:39:42;;;;;;;7.88;6.30;;;;;;;;;;5033208;28;20549;-64
2021/07/21 13:42:28;;;;;;;7.03;6.32;;;;;;;;;;5033289;28;20504;-64
2021/07/21 13:45:13;;;;;;;7.68;6.70;;;;;;;;;;5033912;28;20054;-63
2021/07/21 13:47:59;;;;;;;8.90;6.25;;;;;;;;;;5033550;28;20048;-63
2021/07/21 13:50:44;;;;;;;7.65;6.47;;;;;;;;;;5033585;28;20046;-63
2021/07/21 13:53:29;;;;;;;7.43;6.38;;;;;;;;;;5033800;28;20045;-63
2021/07/21 13:56:15;;;;;;;7.32;6.63;;;;;;;;;;5033956;28;20050;-63
2021/07/21 13:59:00;;;;;;;13.27;6.95;;;;;;;;;;5033515;28;20049;-63
2021/07/21 14:01:46;;;;;;;12.10;6.30;;;;;;;;;;5033505;28;20041;-66
2021/07/21 14:04:31;;;;;;;8.30;6.25;;;;;;;;;;5036386;28;20086;-66
2021/07/21 14:07:17;;;;;;;9.88;6.70;;;;;;;;;;5013430;28;20042;-66
2021/07/21 14:10:02;;;;;;;8.55;7.03;;;;;;;;;;5013223;28;20124;-66
2021/07/21 14:12:47;;;;;;;7.38;6.18;;;;;;;;;;5013495;28;20052;-66
2021/07/21 14:15:34;;;;;;;8.23;6.57;;;;;;;;;;4998723;28;20056;-66
2021/07/21 14:18:19;;;;;;;7.88;6.55;;;;;;;;;;5013583;28;20072;-68
2021/07/21 14:21:05;;;;;;;10.15;7.30;;;;;;;;;;5013072;28;20574;-66
2021/07/21 14:23:50;;;;;;;8.25;6.93;;;;;;;;;;5012978;28;20056;-66
2021/07/21 14:26:36;;;;;;;8.73;7.03;;;;;;;;;;4998103;28;20038;-66
2021/07/21 14:29:21;;;;;;;7.65;6.85;;;;;;;;;;5012111;28;20145;-64
2021/07/21 14:32:06;;;;;;;9.13;7.80;;;;;;;;;;5012827;28;20056;-64
2021/07/21 14:34:52;;;;;;;7.78;6.97;;;;;;;;;;5014113;28;20632;-64
2021/07/21 14:37:37;;;;;;;9.18;6.78;;;;;;;;;;5025023;28;20049;-64
2021/07/21 14:40:23;;;;;;;8.25;7.35;;;;;;;;;;5032420;28;20530;-64
2021/07/21 14:43:08;;;;;;;12.23;7.25;;;;;;;;;;5032615;28;20041;-64
2021/07/21 14:45:53;;;;;;;9.25;7.22;;;;;;;;;;5032598;28;20052;-65
2021/07/21 14:48:40;;;;;;;8.63;7.00;;;;;;;;;;5031767;28;20067;-65
2021/07/21 14:51:25;;;;;;;59.13;10.68;;;;;;;;;;5031961;28;20048;-65
2021/07/21 14:54:10;;;;;;;9.88;6.00;;;;;;;;;;5032575;28;20042;-65
2021/07/21 14:56:56;;;;;;;9.55;7.20;;;;;;;;;;5033786;28;20044;-64
2021/07/21 14:59:41;;;;;;;10.48;6.90;;;;;;;;;;5039638;28;20049;-64
2021/07/21 15:02:26;;;;;;;8.57;6.70;;;;;;;;;;5040568;28;20052;-64
2021/07/21 15:05:12;;;;;;;10.55;6.88;;;;;;;;;;5023661;28;20123;-64
2021/07/21 15:08:00;;;;;;;8.98;6.78;;;;;;;;;;5037801;28;20045;-64
2021/07/21 15:10:46;;;;;;;8.10;6.38;;;;;;;;;;5037270;28;20052;-64
2021/07/21 15:13:32;;;;;;;8.73;7.18;;;;;;;;;;5037054;28;20052;-65
2021/07/21 15:16:17;;;;;;;8.43;6.85;;;;;;;;;;5033174;28;20046;-64
2021/07/21 15:19:03;;;;;;;8.50;6.78;;;;;;;;;;5030352;28;20124;-64
2021/07/21 15:21:48;;;;;;;8.98;6.15;;;;;;;;;;5030615;28;20114;-64
2021/07/21 15:24:33;;;;;;;7.72;6.50;;;;;;;;;;5030587;28;21106;-64
2021/07/21 15:27:19;;;;;;;9.23;6.82;;;;;;;;;;5013193;28;20045;-65
2021/07/21 15:30:04;;;;;;;7.72;6.85;;;;;;;;;;5030586;28;20519;-63
2021/07/21 15:32:50;;;;;;;8.93;6.78;;;;;;;;;;5031992;28;20047;-64
2021/07/21 15:35:36;;;;;;;8.43;6.60;;;;;;;;;;5027582;28;20049;-64
2021/07/21 15:38:21;;;;;;;9.60;6.72;;;;;;;;;;5031573;28;20140;-64
2021/07/21 15:41:07;;;;;;;8.18;6.50;;;;;;;;;;5031634;28;20128;-64
2021/07/21 15:43:52;;;;;;;9.30;6.80;;;;;;;;;;5031850;28;20048;-64
2021/07/21 15:46:38;;;;;;;7.88;6.60;;;;;;;;;;5031901;28;20063;-64
2021/07/21 15:49:24;;;;;;;8.50;6.90;;;;;;;;;;5031035;28;20069;-64
2021/07/21 15:52:09;;;;;;;8.55;7.00;;;;;;;;;;5031809;28;20052;-63
2021/07/21 15:54:55;;;;;;;9.85;6.50;;;;;;;;;;5031501;28;20057;-64
2021/07/21 15:57:40;;;;;;;10.82;6.90;;;;;;;;;;5031379;28;20496;-64
2021/07/21 16:00:26;;;;;;;11.73;6.93;;;;;;;;;;5031394;28;20045;-64
2021/07/21 16:03:11;;;;;;;10.60;7.35;;;;;;;;;;5030685;28;20085;-63
2021/07/21 16:05:56;;;;;;;10.18;8.13;;;;;;;;;;5030917;28;20037;-64
2021/07/21 16:08:42;;;;;;;9.18;7.20;;;;;;;;;;5027797;28;20048;-64
2021/07/21 16:11:27;;;;;;;10.05;7.00;;;;;;;;;;5028957;28;20079;-64
2021/07/21 16:14:13;;;;;;;8.32;7.47;;;;;;;;;;5030391;28;20112;-64
2021/07/21 16:16:58;;;;;;;9.00;7.25;;;;;;;;;;5031318;28;20164;-64
2021/07/21 16:19:43;;;;;;;11.88;7.53;;;;;;;;;;5030826;28;20061;-64
2021/07/21 16:22:29;;;;;;;9.18;7.28;;;;;;;;;;5031530;28;20041;-64
2021/07/21 16:25:15;;;;;;;9.73;8.07;;;;;;;;;;5034636;28;20057;-64
2021/07/21 16:28:00;;;;;;;10.98;7.57;;;;;;;;;;5033605;28;20621;-64
2021/07/21 16:30:45;;;;;;;9.15;7.18;;;;;;;;;;5026421;28;20051;-64
2021/07/21 16:33:30;;;;;;;8.27;7.07;;;;;;;;;;5030303;28;20064;-64
2021/07/21 16:36:16;;;;;;;8.52;7.07;;;;;;;;;;5030847;28;20054;-64
2021/07/21 16:39:02;;;;;;;10.07;8.07;;;;;;;;;;5032539;28;20046;-64
2021/07/21 16:41:47;;;;;;;10.10;8.38;;;;;;;;;;5031707;28;20422;-64
2021/07/21 16:44:33;;;;;;;9.10;7.75;;;;;;;;;;5032349;28;21136;-64
2021/07/21 16:47:18;;;;;;;14.93;8.07;;;;;;;;;;5031966;28;20053;-64
2021/07/21 16:50:05;;;;;;;10.60;7.85;;;;;;;;;;5031836;28;20487;-64
2021/07/21 16:52:51;;;;;;;10.25;8.02;;;;;;;;;;5017201;28;20424;-64
2021/07/21 16:55:36;;;;;;;11.70;8.32;;;;;;;;;;5027043;28;20049;-64